Main page
METAR-TAF:

METAR-TAF

Airports :

Kosrae International Airport

Kosrae, Micronesia

latitude: 05-21N, longitude: 162-57E, elevation: 3 m

Current weather observation

The report was made 3 hours and 8 minutes ago, at 16:50 UTC
Wind 6 kt from the East/Southeast
Temperature 26°C
Humidity 94%
Pressure 1009 hPa
Visibility: 16.1 km
Scattered clouds at a height of 1700 ft
Broken clouds at a height of 13000 ft
Broken clouds at a height of 30000 ft

METAR: PTSA 231650Z 12006KT 10SM SCT017 BKN130 BKN300 26/25 A2980

Time: 06:58 (19:58 UTC)

Forecast

The report was made 2 hours and 31 minutes ago, at 17:27 UTC
Forecast valid from 23 at 18 UTC to 24 at 18 UTC
Wind 6 kt from the East/Southeast
Visibility: 10 km
Few clouds at a height of 1800 ft
Scattered clouds at a height of 14000 ft
showers in vicinity

TAF: PTSA 231727Z 2318/2418 12006KT P6SM VCSH FEW018 SCT140

Weather observations and forecasts of more than 4000 airports (METAR and TAF reports).

The available stations are represented by yellow and red dots on the map.

Hover mouse over dot to see the name of the station.

Then click to see weather observations and forecasts.

To change the map : click on the green buttons with a black cross to zoom in, on the green button with a dash to zoom out, or on the green arrows for adjacent maps.


METAR-TAF: